Time;durP1;ratioP1;P1;durP2;ratioP2;P2;SDS_P1;SDS_P2;PMS_P1;PMS_P2;Temp;Humidity;BMP_temperature;BMP_pressure;BME280_temperature;BME280_humidity;BME280_pressure;Samples;Min_cycle;Max_cycle;Signal;HPM_P1;HPM_P2
2021/07/09 00:02:16;;;;;;;4.97;2.65;;;;;;;;;;5012947;28;20361;-59
2021/07/09 00:04:42;;;;;;;5.28;2.83;;;;;;;;;;5010075;28;20045;-57
2021/07/09 00:07:08;;;;;;;7.15;3.00;;;;;;;;;;5003422;28;20042;-56
2021/07/09 00:09:34;;;;;;;4.45;2.33;;;;;;;;;;5010786;28;20038;-56
2021/07/09 00:12:00;;;;;;;5.82;2.70;;;;;;;;;;5027052;28;20037;-57
2021/07/09 00:14:30;;;;;;;5.93;2.25;;;;;;;;;;5012009;28;20030;-57
2021/07/09 00:16:56;;;;;;;5.82;2.38;;;;;;;;;;5011491;28;20038;-56
2021/07/09 00:19:22;;;;;;;5.40;2.65;;;;;;;;;;5012468;28;20044;-57
2021/07/09 00:21:48;;;;;;;8.57;2.42;;;;;;;;;;5011316;28;20042;-57
2021/07/09 00:24:14;;;;;;;4.07;2.50;;;;;;;;;;5008575;28;20137;-57
2021/07/09 00:26:40;;;;;;;5.88;2.80;;;;;;;;;;5007477;28;20517;-57
2021/07/09 00:29:07;;;;;;;6.30;2.47;;;;;;;;;;5010537;28;20802;-56
2021/07/09 00:31:33;;;;;;;5.85;2.38;;;;;;;;;;5008931;28;20083;-57
2021/07/09 00:34:00;;;;;;;5.05;2.50;;;;;;;;;;5009549;28;20045;-56
2021/07/09 00:36:25;;;;;;;5.30;2.63;;;;;;;;;;5011053;28;20097;-57
2021/07/09 00:38:51;;;;;;;5.72;2.67;;;;;;;;;;5012251;28;20141;-57
2021/07/09 00:41:18;;;;;;;7.38;2.72;;;;;;;;;;5012170;28;20065;-56
2021/07/09 00:43:44;;;;;;;5.82;2.58;;;;;;;;;;5008644;28;20072;-56
2021/07/09 00:46:09;;;;;;;5.40;2.50;;;;;;;;;;5008834;28;20041;-56
2021/07/09 00:48:36;;;;;;;6.00;2.60;;;;;;;;;;5009508;28;20053;-56
2021/07/09 00:51:08;;;;;;;6.68;2.55;;;;;;;;;;5010848;28;20069;-56
2021/07/09 00:53:34;;;;;;;5.07;2.40;;;;;;;;;;5008579;28;21475;-56
2021/07/09 00:56:01;;;;;;;7.10;2.78;;;;;;;;;;5011883;28;20097;-57
2021/07/09 00:58:27;;;;;;;5.63;2.47;;;;;;;;;;5012392;28;20045;-57
2021/07/09 01:00:54;;;;;;;4.68;2.67;;;;;;;;;;5013901;28;20088;-58
2021/07/09 01:03:20;;;;;;;4.57;2.53;;;;;;;;;;5014635;28;20066;-58
2021/07/09 01:05:46;;;;;;;5.05;2.67;;;;;;;;;;5010353;28;20046;-58
2021/07/09 01:08:12;;;;;;;5.18;2.53;;;;;;;;;;5009140;28;20112;-58
2021/07/09 01:10:40;;;;;;;8.85;2.60;;;;;;;;;;5010032;28;20046;-58
2021/07/09 01:13:06;;;;;;;4.97;2.38;;;;;;;;;;5009255;28;20050;-58
2021/07/09 01:15:32;;;;;;;4.72;2.67;;;;;;;;;;5010670;28;20041;-58
2021/07/09 01:17:58;;;;;;;6.85;2.88;;;;;;;;;;5011902;28;20030;-59
2021/07/09 01:20:24;;;;;;;7.43;3.20;;;;;;;;;;5011933;28;20509;-58
2021/07/09 01:22:49;;;;;;;5.68;2.63;;;;;;;;;;5011161;28;20433;-58
2021/07/09 01:25:17;;;;;;;6.18;3.17;;;;;;;;;;5011900;28;20315;-58
2021/07/09 01:27:44;;;;;;;5.82;3.03;;;;;;;;;;5011266;28;20049;-58
2021/07/09 01:30:12;;;;;;;6.10;2.97;;;;;;;;;;5012552;28;20044;-57
2021/07/09 01:32:38;;;;;;;5.43;2.90;;;;;;;;;;5011604;28;20077;-58
2021/07/09 01:35:04;;;;;;;7.20;3.00;;;;;;;;;;5013758;28;20145;-58
2021/07/09 01:37:30;;;;;;;6.25;2.70;;;;;;;;;;5009696;28;20037;-58
2021/07/09 01:39:56;;;;;;;6.10;2.80;;;;;;;;;;5011655;28;20041;-57
2021/07/09 01:42:21;;;;;;;6.55;2.67;;;;;;;;;;5013607;28;20042;-58
2021/07/09 01:44:47;;;;;;;7.40;2.88;;;;;;;;;;5010408;28;20045;-58
2021/07/09 01:47:13;;;;;;;6.43;3.50;;;;;;;;;;5011033;28;20079;-57
2021/07/09 01:49:55;;;;;;;6.03;3.13;;;;;;;;;;5011265;28;20453;-57
2021/07/09 01:52:21;;;;;;;5.07;3.10;;;;;;;;;;5010934;28;20175;-57
2021/07/09 01:54:47;;;;;;;8.75;2.95;;;;;;;;;;5015262;28;20068;-58
2021/07/09 01:57:16;;;;;;;5.63;3.10;;;;;;;;;;5016923;28;20050;-58
2021/07/09 01:59:42;;;;;;;5.03;2.65;;;;;;;;;;5015330;28;20954;-57
2021/07/09 02:02:08;;;;;;;5.25;2.58;;;;;;;;;;5016111;28;20411;-57
2021/07/09 02:04:34;;;;;;;9.13;3.20;;;;;;;;;;5016642;28;20052;-57
2021/07/09 02:07:00;;;;;;;6.22;2.80;;;;;;;;;;5018698;28;20046;-57
2021/07/09 02:09:26;;;;;;;6.35;2.63;;;;;;;;;;5015320;28;20092;-57
2021/07/09 02:11:52;;;;;;;11.20;2.92;;;;;;;;;;5018113;28;20760;-57
2021/07/09 02:14:17;;;;;;;13.85;3.30;;;;;;;;;;5014124;28;20038;-58
2021/07/09 02:16:43;;;;;;;6.47;2.92;;;;;;;;;;5014449;28;20050;-58
2021/07/09 02:19:10;;;;;;;6.28;3.15;;;;;;;;;;5015240;28;20042;-57
2021/07/09 02:21:37;;;;;;;6.97;3.78;;;;;;;;;;5014722;28;20037;-58
2021/07/09 02:24:03;;;;;;;5.32;2.90;;;;;;;;;;5015412;28;20030;-58
2021/07/09 02:26:29;;;;;;;7.85;3.40;;;;;;;;;;5012127;28;20053;-58
2021/07/09 02:28:55;;;;;;;5.22;2.97;;;;;;;;;;5015304;28;20041;-57
2021/07/09 02:31:21;;;;;;;5.40;2.70;;;;;;;;;;5015755;28;20042;-58
2021/07/09 02:33:46;;;;;;;7.00;3.20;;;;;;;;;;5016691;28;20437;-58
2021/07/09 02:36:12;;;;;;;5.78;2.90;;;;;;;;;;5013964;28;20054;-58
2021/07/09 02:38:38;;;;;;;6.25;3.20;;;;;;;;;;5013910;28;20653;-58
2021/07/09 02:41:04;;;;;;;7.70;3.15;;;;;;;;;;5014479;28;20041;-58
2021/07/09 02:43:30;;;;;;;5.30;3.20;;;;;;;;;;5016482;28;20577;-58
2021/07/09 02:45:56;;;;;;;6.70;3.33;;;;;;;;;;5014496;28;20037;-58
2021/07/09 02:48:21;;;;;;;6.57;3.00;;;;;;;;;;5012663;28;20058;-57
2021/07/09 02:50:48;;;;;;;5.78;3.15;;;;;;;;;;5016229;28;20033;-57
2021/07/09 02:53:14;;;;;;;6.18;2.97;;;;;;;;;;5015554;28;20612;-57
2021/07/09 02:55:40;;;;;;;6.65;3.38;;;;;;;;;;5012397;28;20125;-57
2021/07/09 02:58:06;;;;;;;6.07;2.88;;;;;;;;;;5015116;28;20044;-57
2021/07/09 03:00:31;;;;;;;6.00;3.00;;;;;;;;;;5016636;28;20561;-58
2021/07/09 03:02:58;;;;;;;9.98;3.53;;;;;;;;;;5016416;28;21020;-56
2021/07/09 03:05:23;;;;;;;5.55;3.08;;;;;;;;;;5013591;28;20029;-58
2021/07/09 03:07:49;;;;;;;7.10;3.60;;;;;;;;;;5028524;28;20046;-58
2021/07/09 03:10:15;;;;;;;6.40;3.38;;;;;;;;;;5016034;28;20034;-59
2021/07/09 03:12:41;;;;;;;6.07;3.35;;;;;;;;;;5013304;28;20163;-58
2021/07/09 03:15:08;;;;;;;7.57;3.22;;;;;;;;;;5015233;28;20033;-57
2021/07/09 03:17:34;;;;;;;5.80;3.20;;;;;;;;;;5028772;28;20041;-56
2021/07/09 03:19:59;;;;;;;8.02;2.97;;;;;;;;;;5014509;28;20033;-57
2021/07/09 03:22:25;;;;;;;5.38;3.08;;;;;;;;;;5013305;28;20103;-58
2021/07/09 03:24:51;;;;;;;8.27;3.08;;;;;;;;;;5014256;28;20145;-57
2021/07/09 03:27:17;;;;;;;6.50;3.45;;;;;;;;;;5027075;28;20080;-57
2021/07/09 03:29:43;;;;;;;6.47;3.45;;;;;;;;;;5015330;28;20113;-58
2021/07/09 03:32:10;;;;;;;6.60;3.58;;;;;;;;;;5015567;28;20046;-57
2021/07/09 03:34:37;;;;;;;7.72;3.22;;;;;;;;;;5015537;28;20099;-58
2021/07/09 03:37:03;;;;;;;6.65;3.60;;;;;;;;;;5015394;28;20068;-57
2021/07/09 03:39:29;;;;;;;6.30;3.47;;;;;;;;;;5029663;28;20144;-57
2021/07/09 03:41:55;;;;;;;6.50;3.53;;;;;;;;;;5013301;28;20054;-58
2021/07/09 03:44:20;;;;;;;8.15;3.45;;;;;;;;;;5015419;28;20037;-58
2021/07/09 03:46:46;;;;;;;6.45;3.42;;;;;;;;;;5013884;28;20056;-57
2021/07/09 03:49:12;;;;;;;8.35;4.45;;;;;;;;;;5014375;28;20037;-59
2021/07/09 03:51:39;;;;;;;10.23;4.90;;;;;;;;;;5018276;28;20228;-57
2021/07/09 03:54:05;;;;;;;14.18;5.05;;;;;;;;;;5013809;28;20537;-57
2021/07/09 03:56:31;;;;;;;10.25;5.00;;;;;;;;;;5010757;28;20046;-57
2021/07/09 03:58:57;;;;;;;9.05;5.03;;;;;;;;;;5013650;28;20038;-56
2021/07/09 04:01:23;;;;;;;7.95;4.35;;;;;;;;;;5013728;28;20125;-54
2021/07/09 04:03:50;;;;;;;10.85;4.15;;;;;;;;;;5014200;28;20529;-58
2021/07/09 04:06:15;;;;;;;9.68;4.00;;;;;;;;;;5015214;28;20046;-58
2021/07/09 04:08:42;;;;;;;10.23;3.97;;;;;;;;;;5014569;28;20044;-59
2021/07/09 04:11:08;;;;;;;9.15;4.97;;;;;;;;;;5010233;28;20033;-58
2021/07/09 04:13:33;;;;;;;11.23;4.70;;;;;;;;;;5011951;28;20069;-60
2021/07/09 04:15:59;;;;;;;10.07;4.00;;;;;;;;;;5015048;28;20034;-58
2021/07/09 04:18:25;;;;;;;9.98;4.50;;;;;;;;;;5013154;28;20057;-58
2021/07/09 04:20:51;;;;;;;9.48;4.60;;;;;;;;;;5010972;28;20538;-57
2021/07/09 04:23:17;;;;;;;8.75;4.05;;;;;;;;;;5011449;28;20092;-57
2021/07/09 04:25:43;;;;;;;8.90;4.72;;;;;;;;;;5013386;28;20044;-57
2021/07/09 04:28:09;;;;;;;10.20;4.47;;;;;;;;;;5019140;28;20648;-58
2021/07/09 04:30:34;;;;;;;10.13;5.03;;;;;;;;;;5012669;28;20030;-58
2021/07/09 04:33:00;;;;;;;8.98;4.40;;;;;;;;;;5012823;28;20553;-58
2021/07/09 04:35:26;;;;;;;9.30;4.07;;;;;;;;;;5026508;28;20037;-58
2021/07/09 04:37:52;;;;;;;8.38;4.40;;;;;;;;;;5012888;28;20038;-58
2021/07/09 04:40:18;;;;;;;12.68;4.75;;;;;;;;;;5011095;28;20143;-54
2021/07/09 04:42:45;;;;;;;10.05;4.78;;;;;;;;;;5011225;28;20057;-53
2021/07/09 04:45:11;;;;;;;9.80;5.75;;;;;;;;;;5012690;28;20038;-55
2021/07/09 04:47:37;;;;;;;9.18;4.78;;;;;;;;;;5012658;28;20065;-55
2021/07/09 04:50:03;;;;;;;8.75;4.82;;;;;;;;;;5014146;28;20090;-57
2021/07/09 04:52:29;;;;;;;8.85;4.43;;;;;;;;;;5011680;28;20042;-57
2021/07/09 04:54:55;;;;;;;9.75;4.68;;;;;;;;;;5012605;28;20470;-55
2021/07/09 04:57:21;;;;;;;16.73;4.32;;;;;;;;;;5012807;28;20056;-57
2021/07/09 04:59:46;;;;;;;8.75;4.57;;;;;;;;;;5015489;28;20041;-55
2021/07/09 05:02:12;;;;;;;10.95;4.55;;;;;;;;;;5012543;28;20158;-56
2021/07/09 05:04:38;;;;;;;10.65;5.00;;;;;;;;;;5012722;28;20069;-56
2021/07/09 05:07:04;;;;;;;8.98;4.38;;;;;;;;;;5015098;28;20133;-57
2021/07/09 05:09:30;;;;;;;7.35;4.50;;;;;;;;;;5011799;28;20030;-56
2021/07/09 05:11:55;;;;;;;9.60;4.78;;;;;;;;;;5013381;28;20044;-56
2021/07/09 05:14:21;;;;;;;8.90;4.70;;;;;;;;;;5012167;28;20044;-56
2021/07/09 05:16:47;;;;;;;8.57;5.00;;;;;;;;;;5013458;28;20080;-57
2021/07/09 05:19:13;;;;;;;11.38;4.75;;;;;;;;;;5016298;28;20074;-55
2021/07/09 05:21:39;;;;;;;9.77;4.32;;;;;;;;;;5012014;28;20042;-57
2021/07/09 05:24:10;;;;;;;8.43;4.65;;;;;;;;;;5014428;28;20418;-56
2021/07/09 05:26:36;;;;;;;7.28;4.32;;;;;;;;;;5013965;28;20050;-57
2021/07/09 05:29:02;;;;;;;9.40;4.63;;;;;;;;;;5016342;28;20108;-57
2021/07/09 05:31:28;;;;;;;9.05;4.82;;;;;;;;;;5017520;28;20034;-57
2021/07/09 05:33:54;;;;;;;12.55;5.05;;;;;;;;;;5014463;28;20048;-57
2021/07/09 05:36:21;;;;;;;10.20;5.03;;;;;;;;;;5002878;28;20117;-56
2021/07/09 05:38:47;;;;;;;11.63;4.72;;;;;;;;;;5017564;28;20036;-56
2021/07/09 05:41:13;;;;;;;8.73;4.68;;;;;;;;;;5014846;28;20497;-57
2021/07/09 05:43:39;;;;;;;7.93;4.47;;;;;;;;;;5012643;28;20100;-56
2021/07/09 05:46:05;;;;;;;8.23;4.53;;;;;;;;;;5016386;28;20499;-57
2021/07/09 05:48:31;;;;;;;13.25;4.95;;;;;;;;;;5016085;28;20096;-56
2021/07/09 05:50:57;;;;;;;8.10;4.97;;;;;;;;;;5017800;28;20043;-57
2021/07/09 05:53:23;;;;;;;7.85;4.72;;;;;;;;;;5014266;28;20029;-57
2021/07/09 05:55:49;;;;;;;12.45;5.45;;;;;;;;;;5017081;28;20703;-57
2021/07/09 05:58:15;;;;;;;10.95;5.10;;;;;;;;;;5017313;28;20053;-57
2021/07/09 06:00:41;;;;;;;9.10;4.53;;;;;;;;;;5015232;28;20041;-56
2021/07/09 06:03:07;;;;;;;11.07;4.82;;;;;;;;;;5014102;28;20561;-56
2021/07/09 06:05:33;;;;;;;11.95;5.05;;;;;;;;;;5015272;28;20033;-56
2021/07/09 06:08:05;;;;;;;7.40;3.95;;;;;;;;;;5016324;28;20053;-56
2021/07/09 06:10:31;;;;;;;8.35;4.93;;;;;;;;;;5015498;28;20080;-55
2021/07/09 06:12:58;;;;;;;6.90;4.45;;;;;;;;;;5020820;28;20033;-57
2021/07/09 06:15:24;;;;;;;10.07;4.93;;;;;;;;;;5012587;28;20038;-56
2021/07/09 06:17:50;;;;;;;9.75;4.72;;;;;;;;;;5016582;28;20045;-56
2021/07/09 06:20:15;;;;;;;7.05;4.32;;;;;;;;;;5011555;28;20168;-57
2021/07/09 06:22:41;;;;;;;10.55;4.70;;;;;;;;;;5012593;28;20052;-55
2021/07/09 06:25:07;;;;;;;7.88;4.25;;;;;;;;;;5014648;28;20103;-56
2021/07/09 06:27:33;;;;;;;9.13;4.60;;;;;;;;;;5014453;28;20119;-57
2021/07/09 06:29:59;;;;;;;7.82;4.00;;;;;;;;;;5029807;28;20060;-57
2021/07/09 06:32:24;;;;;;;7.90;4.05;;;;;;;;;;5014259;28;20821;-57
2021/07/09 06:34:50;;;;;;;8.55;4.53;;;;;;;;;;5016734;28;20068;-57
2021/07/09 06:37:16;;;;;;;7.78;4.28;;;;;;;;;;5016507;28;20151;-57
2021/07/09 06:39:42;;;;;;;8.88;4.45;;;;;;;;;;5014831;28;20460;-56
2021/07/09 06:42:07;;;;;;;8.93;4.32;;;;;;;;;;5015958;28;20045;-57
2021/07/09 06:44:33;;;;;;;10.20;4.30;;;;;;;;;;5012642;28;20730;-57
2021/07/09 06:46:59;;;;;;;8.07;4.32;;;;;;;;;;5014423;28;20076;-56
2021/07/09 06:49:25;;;;;;;8.13;4.30;;;;;;;;;;5012493;28;20038;-56
2021/07/09 06:51:50;;;;;;;7.85;4.05;;;;;;;;;;5014031;28;20045;-57
2021/07/09 06:54:16;;;;;;;8.02;3.78;;;;;;;;;;5014811;28;20153;-57
2021/07/09 06:56:42;;;;;;;9.27;4.30;;;;;;;;;;5015230;28;20128;-56
2021/07/09 06:59:07;;;;;;;7.68;4.18;;;;;;;;;;5016493;28;20125;-55
2021/07/09 07:01:33;;;;;;;8.75;4.35;;;;;;;;;;5012573;28;20049;-57
2021/07/09 07:03:59;;;;;;;7.10;4.10;;;;;;;;;;5013224;28;20041;-56
2021/07/09 07:06:25;;;;;;;7.15;3.88;;;;;;;;;;5012610;28;20052;-55
2021/07/09 07:08:50;;;;;;;10.43;4.30;;;;;;;;;;5013756;28;20052;-57
2021/07/09 07:11:16;;;;;;;8.07;4.20;;;;;;;;;;5012506;28;20034;-56
2021/07/09 07:13:42;;;;;;;8.18;3.72;;;;;;;;;;5013124;28;20926;-56
2021/07/09 07:16:09;;;;;;;7.53;3.80;;;;;;;;;;5014744;28;20056;-57
2021/07/09 07:18:35;;;;;;;9.10;4.25;;;;;;;;;;5014587;28;20087;-57
2021/07/09 07:21:00;;;;;;;8.73;4.22;;;;;;;;;;5014735;28;20523;-57
2021/07/09 07:23:27;;;;;;;8.95;4.20;;;;;;;;;;5013090;28;20049;-57
2021/07/09 07:25:53;;;;;;;7.53;4.25;;;;;;;;;;5009846;28;20044;-57
2021/07/09 07:28:20;;;;;;;7.68;4.53;;;;;;;;;;5012766;28;20041;-56
2021/07/09 07:30:45;;;;;;;7.88;4.05;;;;;;;;;;5012843;28;20068;-56
2021/07/09 07:33:11;;;;;;;8.85;4.28;;;;;;;;;;5011108;28;20042;-56
2021/07/09 07:35:38;;;;;;;7.90;4.47;;;;;;;;;;5012050;28;20061;-57
2021/07/09 07:38:04;;;;;;;6.25;3.75;;;;;;;;;;5018379;28;20114;-57
2021/07/09 07:40:30;;;;;;;12.75;4.38;;;;;;;;;;5014185;28;20057;-56
2021/07/09 07:42:56;;;;;;;7.45;4.03;;;;;;;;;;5014762;28;20447;-56
2021/07/09 07:45:22;;;;;;;7.82;4.55;;;;;;;;;;5012398;28;20122;-56
2021/07/09 07:47:47;;;;;;;7.25;4.07;;;;;;;;;;5012337;28;20477;-56
2021/07/09 07:50:16;;;;;;;9.32;4.50;;;;;;;;;;5012089;28;20125;-57
2021/07/09 07:52:42;;;;;;;8.82;4.55;;;;;;;;;;5012791;28;20049;-57
2021/07/09 07:55:08;;;;;;;8.80;3.92;;;;;;;;;;5012638;28;20883;-57
2021/07/09 07:57:34;;;;;;;9.60;4.72;;;;;;;;;;5015245;28;20045;-57
2021/07/09 07:59:59;;;;;;;11.77;4.60;;;;;;;;;;5024772;28;20041;-54
2021/07/09 08:02:25;;;;;;;12.70;4.88;;;;;;;;;;5011148;28;20045;-56
2021/07/09 08:04:51;;;;;;;10.43;4.63;;;;;;;;;;5013394;28;20037;-57
2021/07/09 08:07:17;;;;;;;10.90;4.50;;;;;;;;;;5013407;28;20055;-57
2021/07/09 08:09:42;;;;;;;10.07;4.78;;;;;;;;;;5015094;28;20040;-56
2021/07/09 08:12:08;;;;;;;7.72;4.32;;;;;;;;;;5011773;28;20149;-55
2021/07/09 08:14:35;;;;;;;11.25;4.63;;;;;;;;;;5011599;28;20132;-57
2021/07/09 08:17:00;;;;;;;9.25;4.63;;;;;;;;;;5015257;28;20044;-56
2021/07/09 08:19:26;;;;;;;9.27;4.70;;;;;;;;;;5012006;28;20042;-56
2021/07/09 08:21:52;;;;;;;9.32;4.95;;;;;;;;;;5012839;28;20040;-55
2021/07/09 08:24:18;;;;;;;11.32;4.85;;;;;;;;;;5012078;28;20929;-56
2021/07/09 08:26:45;;;;;;;8.43;4.95;;;;;;;;;;5011917;28;20045;-54
2021/07/09 08:29:11;;;;;;;7.25;4.22;;;;;;;;;;5013701;28;20037;-55
2021/07/09 08:31:37;;;;;;;8.75;4.88;;;;;;;;;;5011509;28;20129;-53
2021/07/09 08:34:03;;;;;;;9.15;5.00;;;;;;;;;;5012734;28;20045;-57
2021/07/09 08:36:28;;;;;;;7.97;4.72;;;;;;;;;;5017635;28;20088;-53
2021/07/09 08:38:54;;;;;;;9.30;4.80;;;;;;;;;;5012250;28;20133;-56
2021/07/09 08:41:21;;;;;;;9.75;4.57;;;;;;;;;;5012039;28;20042;-56
2021/07/09 08:43:46;;;;;;;10.90;4.82;;;;;;;;;;5012644;28;20512;-55
2021/07/09 08:46:13;;;;;;;9.85;4.85;;;;;;;;;;5012788;28;20052;-56
2021/07/09 08:48:39;;;;;;;10.27;4.65;;;;;;;;;;5011133;28;22004;-57
2021/07/09 08:51:05;;;;;;;7.65;4.50;;;;;;;;;;5010689;28;20636;-55
2021/07/09 08:53:31;;;;;;;8.20;4.53;;;;;;;;;;5011015;28;20256;-56
2021/07/09 08:55:57;;;;;;;9.98;4.80;;;;;;;;;;5015643;28;20037;-56
2021/07/09 08:58:23;;;;;;;10.13;4.88;;;;;;;;;;5011929;28;20124;-56
2021/07/09 09:00:49;;;;;;;8.10;4.68;;;;;;;;;;5010930;28;20038;-55
2021/07/09 09:03:18;;;;;;;8.73;5.63;;;;;;;;;;5011845;28;20065;-52
2021/07/09 09:05:44;;;;;;;8.23;4.53;;;;;;;;;;5009504;28;20053;-56
2021/07/09 09:08:11;;;;;;;8.45;4.85;;;;;;;;;;5013577;28;20087;-56
2021/07/09 09:10:41;;;;;;;11.40;5.30;;;;;;;;;;5012302;28;20056;-55
2021/07/09 09:13:10;;;;;;;9.70;5.47;;;;;;;;;;5010845;28;20041;-55
2021/07/09 09:15:37;;;;;;;12.27;5.93;;;;;;;;;;5009934;28;20314;-55
2021/07/09 09:18:25;;;;;;;10.07;5.07;;;;;;;;;;5013666;28;20030;-56
2021/07/09 09:21:10;;;;;;;11.68;6.05;;;;;;;;;;5010979;28;20310;-54
2021/07/09 09:23:56;;;;;;;10.98;5.32;;;;;;;;;;5010109;28;20045;-56
2021/07/09 09:26:41;;;;;;;10.35;5.78;;;;;;;;;;5010991;28;20045;-55
2021/07/09 09:29:09;;;;;;;11.10;6.05;;;;;;;;;;5011479;28;20056;-56
2021/07/09 09:31:36;;;;;;;10.65;5.88;;;;;;;;;;5009598;28;20128;-56
2021/07/09 09:34:03;;;;;;;9.27;5.57;;;;;;;;;;5011001;28;20030;-54
2021/07/09 09:36:29;;;;;;;12.95;5.25;;;;;;;;;;5012450;28;20069;-55
2021/07/09 09:38:56;;;;;;;9.60;5.68;;;;;;;;;;5017512;28;20056;-56
2021/07/09 09:41:21;;;;;;;13.85;5.93;;;;;;;;;;5014709;28;20052;-54
2021/07/09 09:43:47;;;;;;;13.27;5.80;;;;;;;;;;5012228;28;20037;-55
2021/07/09 09:46:16;;;;;;;14.60;5.60;;;;;;;;;;5015398;28;20061;-55
2021/07/09 09:48:45;;;;;;;11.75;5.70;;;;;;;;;;5012126;28;20561;-55
2021/07/09 09:51:23;;;;;;;8.40;5.13;;;;;;;;;;5014175;28;20099;-55
2021/07/09 09:53:59;;;;;;;12.85;5.55;;;;;;;;;;5011933;28;20064;-55
2021/07/09 09:56:37;;;;;;;10.30;5.60;;;;;;;;;;5012003;28;20065;-56
2021/07/09 09:59:14;;;;;;;12.82;6.22;;;;;;;;;;5016978;28;20038;-56
2021/07/09 10:01:48;;;;;;;9.57;6.35;;;;;;;;;;5011780;28;20916;-55
2021/07/09 10:04:13;;;;;;;;;;;;;;;;;;5011535;28;20064;-56
2021/07/09 10:06:39;;;;;;;11.50;6.20;;;;;;;;;;5010112;28;19917;-54
2021/07/09 10:09:05;;;;;;;13.57;6.57;;;;;;;;;;5010329;28;20484;-56
2021/07/09 10:11:31;;;;;;;11.90;6.60;;;;;;;;;;5010541;28;20084;-56
2021/07/09 10:13:57;;;;;;;12.20;6.43;;;;;;;;;;5011281;28;20410;-55
2021/07/09 10:16:23;;;;;;;11.85;7.20;;;;;;;;;;5014856;28;20056;-55
2021/07/09 10:18:50;;;;;;;11.95;6.53;;;;;;;;;;5016963;28;20053;-55
2021/07/09 10:21:16;;;;;;;13.40;7.18;;;;;;;;;;5013971;28;20033;-56
2021/07/09 10:23:42;;;;;;;12.70;7.05;;;;;;;;;;5014030;28;20033;-56
2021/07/09 10:26:08;;;;;;;14.52;6.88;;;;;;;;;;5015125;28;20037;-56
2021/07/09 10:28:34;;;;;;;11.27;6.78;;;;;;;;;;5014667;28;20495;-56
2021/07/09 10:31:00;;;;;;;17.55;7.05;;;;;;;;;;5016567;28;20049;-55
2021/07/09 10:33:31;;;;;;;11.73;6.75;;;;;;;;;;5011561;28;20038;-55
2021/07/09 10:35:57;;;;;;;11.88;7.13;;;;;;;;;;5014671;28;20026;-55
2021/07/09 10:38:23;;;;;;;14.63;7.68;;;;;;;;;;5014795;28;20042;-56
2021/07/09 10:40:52;;;;;;;14.75;7.07;;;;;;;;;;5015957;28;20053;-52
2021/07/09 10:43:19;;;;;;;17.13;7.53;;;;;;;;;;5012892;28;20044;-55
2021/07/09 10:45:46;;;;;;;14.00;7.75;;;;;;;;;;5015284;28;21251;-55
2021/07/09 10:48:14;;;;;;;15.32;7.28;;;;;;;;;;5015011;28;20080;-56
2021/07/09 10:50:47;;;;;;;12.90;7.43;;;;;;;;;;5013877;28;20042;-55
2021/07/09 10:53:16;;;;;;;12.40;7.90;;;;;;;;;;5013982;28;20049;-56
2021/07/09 10:55:56;;;;;;;15.63;8.60;;;;;;;;;;5013961;28;20033;-56
2021/07/09 10:58:22;;;;;;;18.83;8.82;;;;;;;;;;5014543;28;20046;-55
2021/07/09 11:00:57;;;;;;;18.95;8.50;;;;;;;;;;5012778;28;20037;-55
2021/07/09 11:03:23;;;;;;;17.48;9.40;;;;;;;;;;5011528;28;20037;-56
2021/07/09 11:05:49;;;;;;;16.92;9.95;;;;;;;;;;5014800;28;20052;-56
2021/07/09 11:08:30;;;;;;;21.17;10.82;;;;;;;;;;5016325;28;20068;-55
2021/07/09 11:10:57;;;;;;;20.08;9.88;;;;;;;;;;5013299;28;20046;-55
2021/07/09 11:13:48;;;;;;;17.42;10.10;;;;;;;;;;5012853;28;20640;-56
2021/07/09 11:16:19;;;;;;;19.10;10.02;;;;;;;;;;5016156;28;20048;-55
2021/07/09 11:18:51;;;;;;;19.67;9.70;;;;;;;;;;5015145;28;20076;-55
2021/07/09 11:21:18;;;;;;;15.18;8.55;;;;;;;;;;5013229;28;20041;-55
2021/07/09 11:23:51;;;;;;;19.98;10.10;;;;;;;;;;5010275;28;20080;-56
2021/07/09 11:26:17;;;;;;;14.27;8.25;;;;;;;;;;5010314;28;20037;-56
2021/07/09 11:28:44;;;;;;;14.98;9.10;;;;;;;;;;5013268;28;20479;-56
2021/07/09 11:31:10;;;;;;;14.27;8.00;;;;;;;;;;5011180;28;20072;-56
2021/07/09 11:33:36;;;;;;;14.82;8.35;;;;;;;;;;5012150;28;20037;-54
2021/07/09 11:36:18;;;;;;;14.50;8.77;;;;;;;;;;5011088;28;20088;-57
2021/07/09 11:39:03;;;;;;;12.85;7.75;;;;;;;;;;5012934;28;20115;-57
2021/07/09 11:41:28;;;;;;;16.13;7.90;;;;;;;;;;5013261;28;20049;-57
2021/07/09 11:43:54;;;;;;;21.60;8.82;;;;;;;;;;5012415;28;20047;-57
2021/07/09 11:46:20;;;;;;;11.65;7.65;;;;;;;;;;5014698;28;20080;-58
2021/07/09 11:48:46;;;;;;;15.13;7.95;;;;;;;;;;5011266;28;20053;-57
2021/07/09 11:51:14;;;;;;;22.02;8.40;;;;;;;;;;5013821;28;20123;-57
2021/07/09 11:53:39;;;;;;;13.73;8.35;;;;;;;;;;5012664;28;20247;-58
2021/07/09 11:56:15;;;;;;;13.98;8.18;;;;;;;;;;5012184;28;20052;-58
2021/07/09 11:58:41;;;;;;;16.23;8.10;;;;;;;;;;5015151;28;20034;-57
2021/07/09 12:01:18;;;;;;;14.68;8.00;;;;;;;;;;5017474;28;20060;-58
2021/07/09 12:03:48;;;;;;;15.43;7.40;;;;;;;;;;5013898;28;20069;-57
2021/07/09 12:06:20;;;;;;;12.23;6.30;;;;;;;;;;5015212;28;20130;-58
2021/07/09 12:08:58;;;;;;;13.20;6.73;;;;;;;;;;5014716;28;20049;-57
2021/07/09 12:11:24;;;;;;;10.25;6.28;;;;;;;;;;5013408;28;20049;-57
2021/07/09 12:14:06;;;;;;;11.32;6.00;;;;;;;;;;5013160;28;20033;-57
2021/07/09 12:16:32;;;;;;;13.73;6.25;;;;;;;;;;5013455;28;20835;-57
2021/07/09 12:19:01;;;;;;;11.20;6.65;;;;;;;;;;5015212;28;20120;-57
2021/07/09 12:21:27;;;;;;;12.48;5.97;;;;;;;;;;5013124;28;20107;-58
2021/07/09 12:24:05;;;;;;;13.30;6.47;;;;;;;;;;5014657;28;22037;-57
2021/07/09 12:26:31;;;;;;;9.82;5.63;;;;;;;;;;5013595;28;20107;-58
2021/07/09 12:28:57;;;;;;;10.57;6.10;;;;;;;;;;5012891;28;20072;-58
2021/07/09 12:31:23;;;;;;;9.55;5.03;;;;;;;;;;5011679;28;20110;-56
2021/07/09 12:33:52;;;;;;;11.88;6.07;;;;;;;;;;5014434;28;20041;-57
2021/07/09 12:36:22;;;;;;;11.13;6.40;;;;;;;;;;5011245;28;20042;-56
2021/07/09 12:38:59;;;;;;;10.80;6.28;;;;;;;;;;5012058;28;20484;-58
2021/07/09 12:41:32;;;;;;;12.07;6.13;;;;;;;;;;5014160;28;20143;-57
2021/07/09 12:44:04;;;;;;;12.63;7.20;;;;;;;;;;5012790;28;20052;-57
2021/07/09 12:46:31;;;;;;;11.55;6.45;;;;;;;;;;5009948;28;20403;-57
2021/07/09 12:48:58;;;;;;;14.13;6.70;;;;;;;;;;5010633;28;20085;-57
2021/07/09 12:51:32;;;;;;;14.43;6.03;;;;;;;;;;5012749;28;20375;-57
2021/07/09 12:53:59;;;;;;;10.10;5.85;;;;;;;;;;5011034;28;20871;-57
2021/07/09 12:56:27;;;;;;;12.98;6.13;;;;;;;;;;5010052;28;20034;-57
2021/07/09 12:59:04;;;;;;;10.30;6.32;;;;;;;;;;5012523;28;20065;-57
2021/07/09 13:01:30;;;;;;;12.60;7.38;;;;;;;;;;5014456;28;20494;-56
2021/07/09 13:03:56;;;;;;;11.68;5.88;;;;;;;;;;5013584;28;20051;-57
2021/07/09 13:06:32;;;;;;;11.52;6.28;;;;;;;;;;5010874;28;20067;-57
2021/07/09 13:09:12;;;;;;;13.32;5.97;;;;;;;;;;5012216;28;20052;-57
2021/07/09 13:11:38;;;;;;;11.93;6.57;;;;;;;;;;5011807;28;20232;-56
2021/07/09 13:14:05;;;;;;;9.60;6.03;;;;;;;;;;5011982;28;20149;-56
2021/07/09 13:16:31;;;;;;;13.15;5.70;;;;;;;;;;5011958;28;20038;-56
2021/07/09 13:18:58;;;;;;;12.65;6.43;;;;;;;;;;5012077;28;20041;-56
2021/07/09 13:21:24;;;;;;;13.35;6.10;;;;;;;;;;5011214;28;20034;-56
2021/07/09 13:24:07;;;;;;;11.98;5.93;;;;;;;;;;5011991;28;20495;-56
2021/07/09 13:26:44;;;;;;;13.75;5.68;;;;;;;;;;5012598;28;20878;-56
2021/07/09 13:29:21;;;;;;;10.10;6.30;;;;;;;;;;5013233;28;20037;-56
2021/07/09 13:31:57;;;;;;;11.45;5.65;;;;;;;;;;5014341;28;20048;-55
2021/07/09 13:34:23;;;;;;;10.23;6.18;;;;;;;;;;5009985;28;20132;-56
2021/07/09 13:36:49;;;;;;;9.75;5.80;;;;;;;;;;5011116;28;20045;-53
2021/07/09 13:39:14;;;;;;;13.82;5.63;;;;;;;;;;5012390;28;20048;-56
2021/07/09 13:41:41;;;;;;;13.45;4.93;;;;;;;;;;5008092;28;20113;-56
2021/07/09 13:44:07;;;;;;;12.10;5.20;;;;;;;;;;5010865;28;20498;-55
2021/07/09 13:46:33;;;;;;;9.30;5.32;;;;;;;;;;5009679;28;20044;-55
2021/07/09 13:49:01;;;;;;;9.63;5.32;;;;;;;;;;5012473;28;20050;-56
2021/07/09 13:51:27;;;;;;;11.05;5.65;;;;;;;;;;5015396;28;20038;-56
2021/07/09 13:53:54;;;;;;;12.18;5.13;;;;;;;;;;5013312;28;20050;-57
2021/07/09 13:56:20;;;;;;;9.45;5.55;;;;;;;;;;4996082;28;20096;-56
2021/07/09 13:58:45;;;;;;;9.57;5.28;;;;;;;;;;5027851;28;20049;-56
2021/07/09 14:01:12;;;;;;;11.45;5.03;;;;;;;;;;5013693;28;20048;-57
2021/07/09 14:03:38;;;;;;;11.98;5.80;;;;;;;;;;5016324;28;20069;-56
2021/07/09 14:06:04;;;;;;;9.90;5.10;;;;;;;;;;5014723;28;20117;-56
2021/07/09 14:08:31;;;;;;;9.50;4.93;;;;;;;;;;5014529;28;20151;-56
2021/07/09 14:10:57;;;;;;;8.45;5.13;;;;;;;;;;5014466;28;20563;-55
2021/07/09 14:13:23;;;;;;;8.82;4.80;;;;;;;;;;5014477;28;20122;-56
2021/07/09 14:15:50;;;;;;;10.10;5.35;;;;;;;;;;5015068;28;20034;-55
2021/07/09 14:18:17;;;;;;;10.90;5.22;;;;;;;;;;5017642;28;20041;-55
2021/07/09 14:20:43;;;;;;;8.90;4.95;;;;;;;;;;5017185;28;20088;-56
2021/07/09 14:23:09;;;;;;;9.50;5.40;;;;;;;;;;5021137;28;20102;-56
2021/07/09 14:25:35;;;;;;;13.93;5.88;;;;;;;;;;5020033;28;20049;-54
2021/07/09 14:28:01;;;;;;;8.23;4.75;;;;;;;;;;5019607;28;20116;-55
2021/07/09 14:30:27;;;;;;;12.40;5.13;;;;;;;;;;5018523;28;20041;-52
2021/07/09 14:32:53;;;;;;;10.65;5.20;;;;;;;;;;5016567;28;20042;-55
2021/07/09 14:35:19;;;;;;;8.40;4.57;;;;;;;;;;5013973;28;20048;-55
2021/07/09 14:37:46;;;;;;;10.50;4.80;;;;;;;;;;5014675;28;20037;-56
2021/07/09 14:40:12;;;;;;;8.50;5.20;;;;;;;;;;5013368;28;20160;-56